sensor_id;sensor_type;location;lat;lon;timestamp;P1;durP1;ratioP1;P2;durP2;ratioP2
65737;SDS011;52478;51.844;6.582;2022-07-05T00:01:22;4.80;;;2.00;;
65737;SDS011;52478;51.844;6.582;2022-07-05T00:03:48;5.50;;;1.80;;
65737;SDS011;52478;51.844;6.582;2022-07-05T00:06:16;6.30;;;2.00;;
65737;SDS011;52478;51.844;6.582;2022-07-05T00:08:42;5.80;;;2.33;;
65737;SDS011;52478;51.844;6.582;2022-07-05T00:11:09;5.07;;;1.88;;
65737;SDS011;52478;51.844;6.582;2022-07-05T00:13:35;4.78;;;1.88;;
65737;SDS011;52478;51.844;6.582;2022-07-05T00:16:01;6.57;;;2.30;;
65737;SDS011;52478;51.844;6.582;2022-07-05T00:18:28;6.00;;;2.17;;
65737;SDS011;52478;51.844;6.582;2022-07-05T00:20:54;4.72;;;1.85;;
65737;SDS011;52478;51.844;6.582;2022-07-05T00:23:22;5.93;;;2.00;;
65737;SDS011;52478;51.844;6.582;2022-07-05T00:25:48;6.10;;;2.20;;
65737;SDS011;52478;51.844;6.582;2022-07-05T00:28:14;4.93;;;2.08;;
65737;SDS011;52478;51.844;6.582;2022-07-05T00:30:41;6.30;;;2.15;;
65737;SDS011;52478;51.844;6.582;2022-07-05T00:33:07;4.70;;;1.77;;
65737;SDS011;52478;51.844;6.582;2022-07-05T00:35:33;5.00;;;1.90;;
65737;SDS011;52478;51.844;6.582;2022-07-05T00:38:00;5.13;;;2.00;;
65737;SDS011;52478;51.844;6.582;2022-07-05T00:40:28;5.70;;;1.98;;
65737;SDS011;52478;51.844;6.582;2022-07-05T00:42:54;5.32;;;2.20;;
65737;SDS011;52478;51.844;6.582;2022-07-05T00:45:20;4.70;;;1.85;;
65737;SDS011;52478;51.844;6.582;2022-07-05T00:47:47;4.82;;;1.70;;
65737;SDS011;52478;51.844;6.582;2022-07-05T00:50:13;4.85;;;1.83;;
65737;SDS011;52478;51.844;6.582;2022-07-05T00:52:40;5.25;;;1.77;;
65737;SDS011;52478;51.844;6.582;2022-07-05T00:55:07;5.40;;;1.88;;
65737;SDS011;52478;51.844;6.582;2022-07-05T00:57:34;5.57;;;2.00;;
65737;SDS011;52478;51.844;6.582;2022-07-05T01:00:01;5.95;;;1.92;;
65737;SDS011;52478;51.844;6.582;2022-07-05T01:02:27;4.80;;;1.73;;
65737;SDS011;52478;51.844;6.582;2022-07-05T01:04:54;6.07;;;2.10;;
65737;SDS011;52478;51.844;6.582;2022-07-05T01:07:21;4.85;;;1.73;;
65737;SDS011;52478;51.844;6.582;2022-07-05T01:09:48;5.10;;;2.00;;
65737;SDS011;52478;51.844;6.582;2022-07-05T01:12:15;5.72;;;1.92;;
65737;SDS011;52478;51.844;6.582;2022-07-05T01:14:43;5.15;;;1.70;;
65737;SDS011;52478;51.844;6.582;2022-07-05T01:17:09;4.88;;;2.15;;
65737;SDS011;52478;51.844;6.582;2022-07-05T01:19:36;4.63;;;1.80;;
65737;SDS011;52478;51.844;6.582;2022-07-05T01:24:31;4.80;;;1.73;;
65737;SDS011;52478;51.844;6.582;2022-07-05T01:26:57;5.20;;;1.98;;
65737;SDS011;52478;51.844;6.582;2022-07-05T01:29:23;4.97;;;1.85;;
65737;SDS011;52478;51.844;6.582;2022-07-05T01:31:50;4.93;;;2.03;;
65737;SDS011;52478;51.844;6.582;2022-07-05T01:34:16;4.80;;;1.90;;
65737;SDS011;52478;51.844;6.582;2022-07-05T01:36:43;4.72;;;2.00;;
65737;SDS011;52478;51.844;6.582;2022-07-05T01:39:09;4.90;;;2.00;;
65737;SDS011;52478;51.844;6.582;2022-07-05T01:41:37;5.03;;;2.03;;
65737;SDS011;52478;51.844;6.582;2022-07-05T01:44:03;4.45;;;1.80;;
65737;SDS011;52478;51.844;6.582;2022-07-05T01:46:31;5.65;;;1.90;;
65737;SDS011;52478;51.844;6.582;2022-07-05T01:49:03;5.05;;;2.10;;
65737;SDS011;52478;51.844;6.582;2022-07-05T01:51:30;7.10;;;2.42;;
65737;SDS011;52478;51.844;6.582;2022-07-05T01:53:59;5.10;;;2.10;;
65737;SDS011;52478;51.844;6.582;2022-07-05T01:56:25;5.38;;;2.15;;
65737;SDS011;52478;51.844;6.582;2022-07-05T01:58:53;5.70;;;1.90;;
65737;SDS011;52478;51.844;6.582;2022-07-05T02:01:31;4.57;;;2.00;;
65737;SDS011;52478;51.844;6.582;2022-07-05T02:03:57;4.75;;;1.90;;
65737;SDS011;52478;51.844;6.582;2022-07-05T02:06:24;5.18;;;1.98;;
65737;SDS011;52478;51.844;6.582;2022-07-05T02:08:50;4.63;;;1.90;;
65737;SDS011;52478;51.844;6.582;2022-07-05T02:11:17;5.43;;;2.05;;
65737;SDS011;52478;51.844;6.582;2022-07-05T02:13:43;5.38;;;2.10;;
65737;SDS011;52478;51.844;6.582;2022-07-05T02:16:11;4.80;;;2.10;;
65737;SDS011;52478;51.844;6.582;2022-07-05T02:18:37;5.25;;;2.03;;
65737;SDS011;52478;51.844;6.582;2022-07-05T02:21:03;4.90;;;2.03;;
65737;SDS011;52478;51.844;6.582;2022-07-05T02:23:30;4.90;;;1.92;;
65737;SDS011;52478;51.844;6.582;2022-07-05T02:25:56;5.53;;;2.33;;
65737;SDS011;52478;51.844;6.582;2022-07-05T02:28:22;5.05;;;2.00;;
65737;SDS011;52478;51.844;6.582;2022-07-05T02:30:49;4.90;;;1.75;;
65737;SDS011;52478;51.844;6.582;2022-07-05T02:33:16;5.30;;;1.95;;
65737;SDS011;52478;51.844;6.582;2022-07-05T02:35:43;4.72;;;1.90;;
65737;SDS011;52478;51.844;6.582;2022-07-05T02:38:09;6.18;;;2.22;;
65737;SDS011;52478;51.844;6.582;2022-07-05T02:40:35;5.00;;;2.15;;
65737;SDS011;52478;51.844;6.582;2022-07-05T02:43:02;4.80;;;1.95;;
65737;SDS011;52478;51.844;6.582;2022-07-05T02:45:28;5.00;;;1.80;;
65737;SDS011;52478;51.844;6.582;2022-07-05T02:47:54;4.78;;;1.88;;
65737;SDS011;52478;51.844;6.582;2022-07-05T02:50:22;4.90;;;1.90;;
65737;SDS011;52478;51.844;6.582;2022-07-05T02:52:48;5.43;;;1.80;;
65737;SDS011;52478;51.844;6.582;2022-07-05T02:55:15;6.18;;;2.10;;
65737;SDS011;52478;51.844;6.582;2022-07-05T03:00:44;5.25;;;1.92;;
65737;SDS011;52478;51.844;6.582;2022-07-05T03:03:10;5.53;;;2.10;;
65737;SDS011;52478;51.844;6.582;2022-07-05T03:05:38;4.88;;;2.00;;
65737;SDS011;52478;51.844;6.582;2022-07-05T03:08:05;5.88;;;1.98;;
65737;SDS011;52478;51.844;6.582;2022-07-05T03:10:31;5.20;;;1.92;;
65737;SDS011;52478;51.844;6.582;2022-07-05T03:12:57;5.18;;;2.10;;
65737;SDS011;52478;51.844;6.582;2022-07-05T03:15:24;5.22;;;2.20;;
65737;SDS011;52478;51.844;6.582;2022-07-05T03:17:50;5.10;;;2.13;;
65737;SDS011;52478;51.844;6.582;2022-07-05T03:20:17;5.32;;;2.13;;
65737;SDS011;52478;51.844;6.582;2022-07-05T03:22:44;5.38;;;2.13;;
65737;SDS011;52478;51.844;6.582;2022-07-05T03:25:11;4.70;;;1.90;;
65737;SDS011;52478;51.844;6.582;2022-07-05T03:27:37;5.97;;;1.83;;
65737;SDS011;52478;51.844;6.582;2022-07-05T03:30:03;5.15;;;2.13;;
65737;SDS011;52478;51.844;6.582;2022-07-05T03:32:30;5.68;;;2.10;;
65737;SDS011;52478;51.844;6.582;2022-07-05T03:34:56;5.45;;;2.10;;
65737;SDS011;52478;51.844;6.582;2022-07-05T03:37:23;5.57;;;2.30;;
65737;SDS011;52478;51.844;6.582;2022-07-05T03:39:50;4.68;;;1.98;;
65737;SDS011;52478;51.844;6.582;2022-07-05T03:42:17;6.00;;;2.20;;
65737;SDS011;52478;51.844;6.582;2022-07-05T03:44:43;5.13;;;2.10;;
65737;SDS011;52478;51.844;6.582;2022-07-05T03:47:09;5.00;;;2.00;;
65737;SDS011;52478;51.844;6.582;2022-07-05T03:49:36;5.15;;;2.05;;
65737;SDS011;52478;51.844;6.582;2022-07-05T03:52:02;6.13;;;2.38;;
65737;SDS011;52478;51.844;6.582;2022-07-05T03:54:28;5.20;;;2.30;;
65737;SDS011;52478;51.844;6.582;2022-07-05T03:56:56;4.90;;;1.98;;
65737;SDS011;52478;51.844;6.582;2022-07-05T03:59:23;5.57;;;1.95;;
65737;SDS011;52478;51.844;6.582;2022-07-05T04:01:49;5.45;;;2.22;;
65737;SDS011;52478;51.844;6.582;2022-07-05T04:04:15;5.18;;;2.00;;
65737;SDS011;52478;51.844;6.582;2022-07-05T04:06:42;5.00;;;2.00;;
65737;SDS011;52478;51.844;6.582;2022-07-05T04:09:08;6.15;;;2.50;;
65737;SDS011;52478;51.844;6.582;2022-07-05T04:11:34;5.47;;;2.28;;
65737;SDS011;52478;51.844;6.582;2022-07-05T04:14:02;5.18;;;2.15;;
65737;SDS011;52478;51.844;6.582;2022-07-05T04:16:28;5.35;;;2.22;;
65737;SDS011;52478;51.844;6.582;2022-07-05T04:18:55;4.95;;;1.90;;
65737;SDS011;52478;51.844;6.582;2022-07-05T04:21:21;6.63;;;2.35;;
65737;SDS011;52478;51.844;6.582;2022-07-05T04:23:47;6.22;;;2.13;;
65737;SDS011;52478;51.844;6.582;2022-07-05T04:26:14;5.10;;;2.20;;
65737;SDS011;52478;51.844;6.582;2022-07-05T04:28:40;5.32;;;2.25;;
65737;SDS011;52478;51.844;6.582;2022-07-05T04:31:08;5.97;;;2.28;;
65737;SDS011;52478;51.844;6.582;2022-07-05T04:33:34;6.60;;;2.25;;
65737;SDS011;52478;51.844;6.582;2022-07-05T04:36:01;5.65;;;2.35;;
65737;SDS011;52478;51.844;6.582;2022-07-05T04:38:27;5.47;;;2.10;;
65737;SDS011;52478;51.844;6.582;2022-07-05T04:40:54;5.15;;;2.00;;
65737;SDS011;52478;51.844;6.582;2022-07-05T04:43:20;5.82;;;2.10;;
65737;SDS011;52478;51.844;6.582;2022-07-05T04:48:46;5.38;;;2.00;;
65737;SDS011;52478;51.844;6.582;2022-07-05T04:51:13;5.50;;;2.15;;
65737;SDS011;52478;51.844;6.582;2022-07-05T04:53:39;7.22;;;2.20;;
65737;SDS011;52478;51.844;6.582;2022-07-05T04:56:05;4.45;;;1.70;;
65737;SDS011;52478;51.844;6.582;2022-07-05T04:58:32;4.93;;;2.10;;
65737;SDS011;52478;51.844;6.582;2022-07-05T05:00:58;5.10;;;2.03;;
65737;SDS011;52478;51.844;6.582;2022-07-05T05:03:25;5.78;;;2.30;;
65737;SDS011;52478;51.844;6.582;2022-07-05T05:05:52;5.32;;;2.15;;
65737;SDS011;52478;51.844;6.582;2022-07-05T05:08:19;5.28;;;2.30;;
65737;SDS011;52478;51.844;6.582;2022-07-05T05:10:45;5.43;;;2.10;;
65737;SDS011;52478;51.844;6.582;2022-07-05T05:13:11;6.15;;;2.13;;
65737;SDS011;52478;51.844;6.582;2022-07-05T05:15:38;6.13;;;2.25;;
65737;SDS011;52478;51.844;6.582;2022-07-05T05:18:04;5.28;;;2.10;;
65737;SDS011;52478;51.844;6.582;2022-07-05T05:20:30;4.93;;;1.98;;
65737;SDS011;52478;51.844;6.582;2022-07-05T05:22:58;6.65;;;2.60;;
65737;SDS011;52478;51.844;6.582;2022-07-05T05:25:24;5.72;;;2.25;;
65737;SDS011;52478;51.844;6.582;2022-07-05T05:27:52;5.60;;;2.40;;
65737;SDS011;52478;51.844;6.582;2022-07-05T05:30:19;6.20;;;2.35;;
65737;SDS011;52478;51.844;6.582;2022-07-05T05:32:46;5.32;;;2.35;;
65737;SDS011;52478;51.844;6.582;2022-07-05T05:35:12;5.10;;;2.08;;
65737;SDS011;52478;51.844;6.582;2022-07-05T05:37:45;6.60;;;2.08;;
65737;SDS011;52478;51.844;6.582;2022-07-05T05:40:14;5.13;;;1.98;;
65737;SDS011;52478;51.844;6.582;2022-07-05T05:42:40;8.73;;;2.33;;
65737;SDS011;52478;51.844;6.582;2022-07-05T05:45:07;14.30;;;3.30;;
65737;SDS011;52478;51.844;6.582;2022-07-05T05:47:33;8.23;;;3.00;;
65737;SDS011;52478;51.844;6.582;2022-07-05T05:49:59;7.47;;;2.80;;
65737;SDS011;52478;51.844;6.582;2022-07-05T05:52:26;6.60;;;2.70;;
65737;SDS011;52478;51.844;6.582;2022-07-05T05:54:52;8.10;;;2.80;;
65737;SDS011;52478;51.844;6.582;2022-07-05T05:57:20;7.10;;;2.70;;
65737;SDS011;52478;51.844;6.582;2022-07-05T05:59:46;8.52;;;2.67;;
65737;SDS011;52478;51.844;6.582;2022-07-05T06:02:13;7.57;;;2.97;;
65737;SDS011;52478;51.844;6.582;2022-07-05T06:04:39;6.47;;;3.00;;
65737;SDS011;52478;51.844;6.582;2022-07-05T06:07:05;5.68;;;2.50;;
65737;SDS011;52478;51.844;6.582;2022-07-05T06:09:32;6.75;;;2.47;;
65737;SDS011;52478;51.844;6.582;2022-07-05T06:11:58;7.63;;;2.63;;
65737;SDS011;52478;51.844;6.582;2022-07-05T06:14:26;6.20;;;2.40;;
65737;SDS011;52478;51.844;6.582;2022-07-05T06:16:52;7.20;;;2.65;;
65737;SDS011;52478;51.844;6.582;2022-07-05T06:19:18;6.53;;;2.50;;
65737;SDS011;52478;51.844;6.582;2022-07-05T06:21:45;7.10;;;2.55;;
65737;SDS011;52478;51.844;6.582;2022-07-05T06:24:11;7.13;;;2.53;;
65737;SDS011;52478;51.844;6.582;2022-07-05T06:26:37;5.55;;;2.38;;
65737;SDS011;52478;51.844;6.582;2022-07-05T06:29:04;6.28;;;2.28;;
65737;SDS011;52478;51.844;6.582;2022-07-05T06:31:31;6.43;;;2.42;;
65737;SDS011;52478;51.844;6.582;2022-07-05T06:33:58;7.13;;;2.50;;
65737;SDS011;52478;51.844;6.582;2022-07-05T06:36:24;10.02;;;2.90;;
65737;SDS011;52478;51.844;6.582;2022-07-05T06:38:51;6.82;;;3.00;;
65737;SDS011;52478;51.844;6.582;2022-07-05T06:41:17;6.15;;;2.63;;
65737;SDS011;52478;51.844;6.582;2022-07-05T06:43:43;6.40;;;2.60;;
65737;SDS011;52478;51.844;6.582;2022-07-05T06:46:10;6.28;;;2.58;;
65737;SDS011;52478;51.844;6.582;2022-07-05T06:48:37;8.50;;;2.80;;
65737;SDS011;52478;51.844;6.582;2022-07-05T06:51:04;8.60;;;2.50;;
65737;SDS011;52478;51.844;6.582;2022-07-05T06:53:31;6.97;;;2.40;;
65737;SDS011;52478;51.844;6.582;2022-07-05T06:55:57;8.00;;;2.67;;
65737;SDS011;52478;51.844;6.582;2022-07-05T06:58:23;8.40;;;2.95;;
65737;SDS011;52478;51.844;6.582;2022-07-05T07:00:50;6.53;;;2.55;;
65737;SDS011;52478;51.844;6.582;2022-07-05T07:03:16;6.32;;;2.50;;
65737;SDS011;52478;51.844;6.582;2022-07-05T07:05:44;7.35;;;2.67;;
65737;SDS011;52478;51.844;6.582;2022-07-05T07:08:10;6.63;;;2.40;;
65737;SDS011;52478;51.844;6.582;2022-07-05T07:10:54;6.95;;;2.22;;
65737;SDS011;52478;51.844;6.582;2022-07-05T07:13:20;7.78;;;2.58;;
65737;SDS011;52478;51.844;6.582;2022-07-05T07:15:47;5.90;;;2.13;;
65737;SDS011;52478;51.844;6.582;2022-07-05T07:18:13;5.90;;;2.00;;
65737;SDS011;52478;51.844;6.582;2022-07-05T07:20:40;6.57;;;2.17;;
65737;SDS011;52478;51.844;6.582;2022-07-05T07:23:08;5.97;;;2.13;;
65737;SDS011;52478;51.844;6.582;2022-07-05T07:25:34;6.78;;;1.85;;
65737;SDS011;52478;51.844;6.582;2022-07-05T07:28:01;5.57;;;1.80;;
65737;SDS011;52478;51.844;6.582;2022-07-05T07:30:27;5.63;;;1.90;;
65737;SDS011;52478;51.844;6.582;2022-07-05T07:32:54;5.05;;;1.80;;
65737;SDS011;52478;51.844;6.582;2022-07-05T07:35:20;5.82;;;1.92;;
65737;SDS011;52478;51.844;6.582;2022-07-05T07:37:47;6.20;;;1.98;;
65737;SDS011;52478;51.844;6.582;2022-07-05T07:40:15;5.80;;;1.90;;
65737;SDS011;52478;51.844;6.582;2022-07-05T07:42:41;5.70;;;1.75;;
65737;SDS011;52478;51.844;6.582;2022-07-05T07:45:08;5.25;;;1.90;;
65737;SDS011;52478;51.844;6.582;2022-07-05T07:47:34;5.75;;;1.70;;
65737;SDS011;52478;51.844;6.582;2022-07-05T07:50:01;6.45;;;1.90;;
65737;SDS011;52478;51.844;6.582;2022-07-05T07:52:28;6.25;;;2.05;;
65737;SDS011;52478;51.844;6.582;2022-07-05T07:54:55;5.30;;;1.70;;
65737;SDS011;52478;51.844;6.582;2022-07-05T07:57:23;5.32;;;1.95;;
65737;SDS011;52478;51.844;6.582;2022-07-05T07:59:49;5.75;;;1.92;;
65737;SDS011;52478;51.844;6.582;2022-07-05T08:02:15;6.75;;;2.00;;
65737;SDS011;52478;51.844;6.582;2022-07-05T08:04:42;6.40;;;1.83;;
65737;SDS011;52478;51.844;6.582;2022-07-05T08:07:08;5.90;;;1.90;;
65737;SDS011;52478;51.844;6.582;2022-07-05T08:09:35;6.07;;;2.00;;
65737;SDS011;52478;51.844;6.582;2022-07-05T08:12:01;7.65;;;2.30;;
65737;SDS011;52478;51.844;6.582;2022-07-05T08:14:29;6.68;;;1.90;;
65737;SDS011;52478;51.844;6.582;2022-07-05T08:16:55;5.35;;;2.00;;
65737;SDS011;52478;51.844;6.582;2022-07-05T08:19:22;5.68;;;1.90;;
65737;SDS011;52478;51.844;6.582;2022-07-05T08:22:06;5.55;;;1.83;;
65737;SDS011;52478;51.844;6.582;2022-07-05T08:24:33;5.53;;;1.83;;
65737;SDS011;52478;51.844;6.582;2022-07-05T08:27:00;6.57;;;2.30;;
65737;SDS011;52478;51.844;6.582;2022-07-05T08:29:26;5.82;;;2.22;;
65737;SDS011;52478;51.844;6.582;2022-07-05T08:31:54;7.40;;;2.17;;
65737;SDS011;52478;51.844;6.582;2022-07-05T08:34:20;6.18;;;2.28;;
65737;SDS011;52478;51.844;6.582;2022-07-05T08:36:47;5.80;;;2.45;;
65737;SDS011;52478;51.844;6.582;2022-07-05T08:39:14;6.25;;;2.53;;
65737;SDS011;52478;51.844;6.582;2022-07-05T08:41:41;6.20;;;2.30;;
65737;SDS011;52478;51.844;6.582;2022-07-05T08:44:08;5.55;;;2.10;;
65737;SDS011;52478;51.844;6.582;2022-07-05T08:46:37;6.30;;;2.08;;
65737;SDS011;52478;51.844;6.582;2022-07-05T08:49:10;7.60;;;2.30;;
65737;SDS011;52478;51.844;6.582;2022-07-05T08:57:47;8.15;;;3.63;;
65737;SDS011;52478;51.844;6.582;2022-07-05T09:00:13;6.43;;;2.92;;
65737;SDS011;52478;51.844;6.582;2022-07-05T09:02:40;8.07;;;3.90;;
65737;SDS011;52478;51.844;6.582;2022-07-05T09:05:08;7.20;;;3.45;;
65737;SDS011;52478;51.844;6.582;2022-07-05T09:07:37;9.93;;;3.03;;
65737;SDS011;52478;51.844;6.582;2022-07-05T09:10:04;6.45;;;2.65;;
65737;SDS011;52478;51.844;6.582;2022-07-05T09:12:31;6.13;;;2.50;;
65737;SDS011;52478;51.844;6.582;2022-07-05T09:14:58;7.72;;;2.80;;
65737;SDS011;52478;51.844;6.582;2022-07-05T09:17:24;7.93;;;2.60;;
65737;SDS011;52478;51.844;6.582;2022-07-05T09:20:10;6.40;;;2.75;;
65737;SDS011;52478;51.844;6.582;2022-07-05T09:22:47;8.20;;;2.72;;
65737;SDS011;52478;51.844;6.582;2022-07-05T09:25:17;7.05;;;2.95;;
65737;SDS011;52478;51.844;6.582;2022-07-05T09:27:48;6.95;;;2.70;;
65737;SDS011;52478;51.844;6.582;2022-07-05T09:30:23;6.75;;;2.42;;
65737;SDS011;52478;51.844;6.582;2022-07-05T09:32:57;6.95;;;2.67;;
65737;SDS011;52478;51.844;6.582;2022-07-05T09:35:26;5.28;;;2.30;;
65737;SDS011;52478;51.844;6.582;2022-07-05T09:37:53;6.65;;;2.10;;
65737;SDS011;52478;51.844;6.582;2022-07-05T09:40:19;5.95;;;2.08;;
65737;SDS011;52478;51.844;6.582;2022-07-05T09:42:46;7.53;;;2.63;;
65737;SDS011;52478;51.844;6.582;2022-07-05T09:45:12;5.30;;;2.25;;
65737;SDS011;52478;51.844;6.582;2022-07-05T09:47:47;5.25;;;2.50;;
65737;SDS011;52478;51.844;6.582;2022-07-05T09:50:13;7.05;;;2.60;;
65737;SDS011;52478;51.844;6.582;2022-07-05T09:52:41;9.55;;;2.28;;
65737;SDS011;52478;51.844;6.582;2022-07-05T09:55:09;8.63;;;2.53;;
65737;SDS011;52478;51.844;6.582;2022-07-05T09:57:36;8.82;;;2.55;;
65737;SDS011;52478;51.844;6.582;2022-07-05T10:00:04;6.32;;;2.28;;
65737;SDS011;52478;51.844;6.582;2022-07-05T10:02:37;6.80;;;2.03;;
65737;SDS011;52478;51.844;6.582;2022-07-05T10:05:07;5.95;;;2.08;;
65737;SDS011;52478;51.844;6.582;2022-07-05T10:07:34;5.55;;;2.20;;
65737;SDS011;52478;51.844;6.582;2022-07-05T10:10:03;6.47;;;1.85;;
65737;SDS011;52478;51.844;6.582;2022-07-05T10:12:29;9.13;;;2.05;;
65737;SDS011;52478;51.844;6.582;2022-07-05T10:14:56;6.00;;;2.00;;
65737;SDS011;52478;51.844;6.582;2022-07-05T10:17:23;6.47;;;2.00;;
65737;SDS011;52478;51.844;6.582;2022-07-05T10:19:50;6.93;;;2.03;;
65737;SDS011;52478;51.844;6.582;2022-07-05T10:22:17;5.22;;;1.83;;
65737;SDS011;52478;51.844;6.582;2022-07-05T10:24:43;5.93;;;1.90;;
65737;SDS011;52478;51.844;6.582;2022-07-05T10:27:11;5.10;;;1.90;;
65737;SDS011;52478;51.844;6.582;2022-07-05T10:29:38;5.80;;;2.10;;
65737;SDS011;52478;51.844;6.582;2022-07-05T10:32:06;4.72;;;1.92;;
65737;SDS011;52478;51.844;6.582;2022-07-05T10:34:34;6.47;;;2.00;;
65737;SDS011;52478;51.844;6.582;2022-07-05T10:49:14;6.47;;;1.90;;
65737;SDS011;52478;51.844;6.582;2022-07-05T10:51:41;6.05;;;1.95;;
65737;SDS011;52478;51.844;6.582;2022-07-05T10:54:08;6.45;;;1.90;;
65737;SDS011;52478;51.844;6.582;2022-07-05T10:56:34;6.05;;;1.75;;
65737;SDS011;52478;51.844;6.582;2022-07-05T10:59:08;6.53;;;1.98;;
65737;SDS011;52478;51.844;6.582;2022-07-05T11:01:37;4.90;;;1.60;;
65737;SDS011;52478;51.844;6.582;2022-07-05T11:04:10;6.05;;;1.70;;
65737;SDS011;52478;51.844;6.582;2022-07-05T11:11:32;6.03;;;1.88;;
65737;SDS011;52478;51.844;6.582;2022-07-05T11:13:59;5.88;;;1.98;;
65737;SDS011;52478;51.844;6.582;2022-07-05T11:16:26;6.07;;;1.95;;
65737;SDS011;52478;51.844;6.582;2022-07-05T11:18:54;5.03;;;1.95;;
65737;SDS011;52478;51.844;6.582;2022-07-05T11:21:30;5.80;;;1.75;;
65737;SDS011;52478;51.844;6.582;2022-07-05T11:24:16;5.03;;;2.10;;
65737;SDS011;52478;51.844;6.582;2022-07-05T11:26:45;6.38;;;2.20;;
65737;SDS011;52478;51.844;6.582;2022-07-05T11:32:03;5.68;;;1.85;;
65737;SDS011;52478;51.844;6.582;2022-07-05T11:34:31;5.28;;;1.85;;
65737;SDS011;52478;51.844;6.582;2022-07-05T11:39:39;5.25;;;1.80;;
65737;SDS011;52478;51.844;6.582;2022-07-05T11:42:07;4.65;;;1.73;;
65737;SDS011;52478;51.844;6.582;2022-07-05T11:44:34;5.20;;;1.90;;
65737;SDS011;52478;51.844;6.582;2022-07-05T11:47:01;6.25;;;2.03;;
65737;SDS011;52478;51.844;6.582;2022-07-05T11:49:27;6.80;;;2.10;;
65737;SDS011;52478;51.844;6.582;2022-07-05T11:51:54;6.13;;;1.70;;
65737;SDS011;52478;51.844;6.582;2022-07-05T11:54:22;4.80;;;2.08;;
65737;SDS011;52478;51.844;6.582;2022-07-05T11:56:48;5.22;;;2.20;;
65737;SDS011;52478;51.844;6.582;2022-07-05T11:59:20;7.30;;;2.13;;
65737;SDS011;52478;51.844;6.582;2022-07-05T12:01:46;6.80;;;2.33;;
65737;SDS011;52478;51.844;6.582;2022-07-05T12:04:20;5.45;;;2.28;;
65737;SDS011;52478;51.844;6.582;2022-07-05T12:06:46;5.65;;;1.90;;
65737;SDS011;52478;51.844;6.582;2022-07-05T12:09:14;6.78;;;2.15;;
65737;SDS011;52478;51.844;6.582;2022-07-05T12:11:46;5.60;;;1.90;;
65737;SDS011;52478;51.844;6.582;2022-07-05T12:14:34;5.18;;;2.20;;
65737;SDS011;52478;51.844;6.582;2022-07-05T12:17:10;4.80;;;1.98;;
65737;SDS011;52478;51.844;6.582;2022-07-05T12:19:37;4.65;;;2.00;;
65737;SDS011;52478;51.844;6.582;2022-07-05T12:22:03;5.95;;;2.00;;
65737;SDS011;52478;51.844;6.582;2022-07-05T12:24:30;5.35;;;2.10;;
65737;SDS011;52478;51.844;6.582;2022-07-05T12:26:56;6.05;;;2.22;;
65737;SDS011;52478;51.844;6.582;2022-07-05T12:29:22;6.63;;;2.30;;
65737;SDS011;52478;51.844;6.582;2022-07-05T12:31:59;8.45;;;2.35;;
65737;SDS011;52478;51.844;6.582;2022-07-05T12:34:26;6.65;;;2.45;;
65737;SDS011;52478;51.844;6.582;2022-07-05T12:36:53;5.55;;;2.20;;
65737;SDS011;52478;51.844;6.582;2022-07-05T12:39:19;6.43;;;2.45;;
65737;SDS011;52478;51.844;6.582;2022-07-05T12:41:46;5.38;;;2.42;;
65737;SDS011;52478;51.844;6.582;2022-07-05T12:44:12;6.03;;;2.20;;
65737;SDS011;52478;51.844;6.582;2022-07-05T12:46:43;5.30;;;2.53;;
65737;SDS011;52478;51.844;6.582;2022-07-05T12:51:39;6.22;;;2.30;;
65737;SDS011;52478;51.844;6.582;2022-07-05T12:54:06;6.55;;;2.45;;
65737;SDS011;52478;51.844;6.582;2022-07-05T12:56:50;5.50;;;2.20;;
65737;SDS011;52478;51.844;6.582;2022-07-05T13:11:30;5.72;;;2.40;;
65737;SDS011;52478;51.844;6.582;2022-07-05T13:20:03;5.00;;;2.33;;
65737;SDS011;52478;51.844;6.582;2022-07-05T13:22:30;9.10;;;2.60;;
65737;SDS011;52478;51.844;6.582;2022-07-05T13:24:56;6.70;;;2.50;;
65737;SDS011;52478;51.844;6.582;2022-07-05T13:27:24;8.25;;;2.70;;
65737;SDS011;52478;51.844;6.582;2022-07-05T13:35:56;7.68;;;2.40;;
65737;SDS011;52478;51.844;6.582;2022-07-05T13:38:22;6.60;;;2.45;;
65737;SDS011;52478;51.844;6.582;2022-07-05T13:40:48;6.90;;;2.50;;
65737;SDS011;52478;51.844;6.582;2022-07-05T13:46:10;5.90;;;2.88;;
65737;SDS011;52478;51.844;6.582;2022-07-05T13:48:37;8.13;;;2.50;;
65737;SDS011;52478;51.844;6.582;2022-07-05T13:51:03;5.50;;;2.58;;
65737;SDS011;52478;51.844;6.582;2022-07-05T13:59:35;6.35;;;2.30;;
65737;SDS011;52478;51.844;6.582;2022-07-05T14:02:03;7.45;;;2.40;;
65737;SDS011;52478;51.844;6.582;2022-07-05T14:04:30;7.65;;;2.58;;
65737;SDS011;52478;51.844;6.582;2022-07-05T14:06:58;6.05;;;2.33;;
65737;SDS011;52478;51.844;6.582;2022-07-05T14:09:24;5.75;;;2.20;;
65737;SDS011;52478;51.844;6.582;2022-07-05T14:11:51;7.03;;;2.30;;
65737;SDS011;52478;51.844;6.582;2022-07-05T14:14:17;6.60;;;2.30;;
65737;SDS011;52478;51.844;6.582;2022-07-05T14:16:44;5.32;;;2.13;;
65737;SDS011;52478;51.844;6.582;2022-07-05T14:19:12;5.38;;;2.42;;
65737;SDS011;52478;51.844;6.582;2022-07-05T14:21:38;6.95;;;2.47;;
65737;SDS011;52478;51.844;6.582;2022-07-05T14:24:06;6.82;;;2.15;;
65737;SDS011;52478;51.844;6.582;2022-07-05T14:26:32;6.90;;;2.13;;
65737;SDS011;52478;51.844;6.582;2022-07-05T14:28:59;5.30;;;1.80;;
65737;SDS011;52478;51.844;6.582;2022-07-05T14:31:26;5.20;;;1.80;;
65737;SDS011;52478;51.844;6.582;2022-07-05T14:33:55;5.53;;;1.92;;
65737;SDS011;52478;51.844;6.582;2022-07-05T14:36:23;7.05;;;2.15;;
65737;SDS011;52478;51.844;6.582;2022-07-05T14:38:49;4.90;;;1.63;;
65737;SDS011;52478;51.844;6.582;2022-07-05T14:41:16;6.93;;;1.73;;
65737;SDS011;52478;51.844;6.582;2022-07-05T14:43:42;5.20;;;1.90;;
65737;SDS011;52478;51.844;6.582;2022-07-05T14:46:09;6.10;;;1.80;;
65737;SDS011;52478;51.844;6.582;2022-07-05T14:48:38;4.80;;;1.65;;
65737;SDS011;52478;51.844;6.582;2022-07-05T14:51:04;6.20;;;1.70;;
65737;SDS011;52478;51.844;6.582;2022-07-05T14:53:32;6.57;;;1.50;;
65737;SDS011;52478;51.844;6.582;2022-07-05T14:55:58;5.40;;;1.63;;
65737;SDS011;52478;51.844;6.582;2022-07-05T14:58:24;4.57;;;1.55;;
65737;SDS011;52478;51.844;6.582;2022-07-05T15:00:55;5.22;;;1.60;;
65737;SDS011;52478;51.844;6.582;2022-07-05T15:03:22;5.28;;;1.67;;
65737;SDS011;52478;51.844;6.582;2022-07-05T15:05:48;6.63;;;1.67;;
65737;SDS011;52478;51.844;6.582;2022-07-05T15:08:15;4.95;;;1.80;;
65737;SDS011;52478;51.844;6.582;2022-07-05T15:10:42;5.70;;;1.60;;
65737;SDS011;52478;51.844;6.582;2022-07-05T15:13:09;4.38;;;1.60;;
65737;SDS011;52478;51.844;6.582;2022-07-05T15:15:36;7.10;;;2.05;;
65737;SDS011;52478;51.844;6.582;2022-07-05T15:18:03;5.88;;;1.70;;
65737;SDS011;52478;51.844;6.582;2022-07-05T15:20:29;5.70;;;1.60;;
65737;SDS011;52478;51.844;6.582;2022-07-05T15:22:55;5.88;;;1.60;;
65737;SDS011;52478;51.844;6.582;2022-07-05T15:25:22;5.45;;;1.63;;
65737;SDS011;52478;51.844;6.582;2022-07-05T15:27:50;7.47;;;1.95;;
65737;SDS011;52478;51.844;6.582;2022-07-05T15:30:16;5.05;;;1.80;;
65737;SDS011;52478;51.844;6.582;2022-07-05T15:32:45;5.25;;;1.55;;
65737;SDS011;52478;51.844;6.582;2022-07-05T15:35:11;6.07;;;1.67;;
65737;SDS011;52478;51.844;6.582;2022-07-05T15:37:37;6.97;;;1.80;;
65737;SDS011;52478;51.844;6.582;2022-07-05T15:40:04;5.07;;;1.63;;
65737;SDS011;52478;51.844;6.582;2022-07-05T15:44:58;5.10;;;1.80;;
65737;SDS011;52478;51.844;6.582;2022-07-05T15:47:25;6.40;;;1.60;;
65737;SDS011;52478;51.844;6.582;2022-07-05T15:49:52;5.35;;;1.50;;
65737;SDS011;52478;51.844;6.582;2022-07-05T15:52:18;5.93;;;2.00;;
65737;SDS011;52478;51.844;6.582;2022-07-05T15:54:45;7.18;;;1.80;;
65737;SDS011;52478;51.844;6.582;2022-07-05T15:57:12;7.25;;;1.85;;
65737;SDS011;52478;51.844;6.582;2022-07-05T16:02:06;6.78;;;1.60;;
65737;SDS011;52478;51.844;6.582;2022-07-05T16:04:32;6.15;;;1.65;;
65737;SDS011;52478;51.844;6.582;2022-07-05T16:06:59;5.53;;;1.60;;